createdAt,value
2017-08-20T00:00:53.984Z,44.40
2017-08-20T00:03:22.312Z,48.20
2017-08-20T00:05:50.622Z,44.57
2017-08-20T00:08:18.906Z,43.57
2017-08-20T00:10:47.226Z,47.87
2017-08-20T00:13:15.521Z,44.80
2017-08-20T00:15:43.807Z,44.80
2017-08-20T00:18:12.134Z,45.23
2017-08-20T00:20:41.180Z,47.40
2017-08-20T00:23:09.486Z,49.30
2017-08-20T00:25:37.775Z,47.90
2017-08-20T00:28:06.097Z,44.23
2017-08-20T00:30:35.152Z,45.40
2017-08-20T00:33:03.474Z,46.93
2017-08-20T00:35:31.768Z,51.73
2017-08-20T00:38:00.054Z,45.27
2017-08-20T00:40:28.371Z,46.77
2017-08-20T00:42:57.428Z,48.00
2017-08-20T00:45:25.746Z,44.80
2017-08-20T00:47:54.031Z,45.97
2017-08-20T00:50:22.314Z,45.67
2017-08-20T00:52:50.638Z,49.40
2017-08-20T00:55:19.292Z,47.80
2017-08-20T00:57:47.594Z,48.67
2017-08-20T01:00:15.923Z,44.60
2017-08-20T01:02:44.213Z,43.67
2017-08-20T01:05:12.526Z,45.93
2017-08-20T01:07:40.814Z,44.43
2017-08-20T01:10:09.140Z,44.67
2017-08-20T01:12:37.423Z,48.27
2017-08-20T01:15:05.708Z,44.67
2017-08-20T01:17:34.026Z,44.37
2017-08-20T01:20:03.074Z,45.10
2017-08-20T01:22:31.358Z,44.00
2017-08-20T01:24:59.670Z,46.03
2017-08-20T01:27:27.991Z,45.90
2017-08-20T01:29:56.315Z,47.17
2017-08-20T01:32:24.603Z,46.23
2017-08-20T01:34:52.915Z,46.90
2017-08-20T01:37:21.199Z,44.90
2017-08-20T01:39:49.527Z,44.90
2017-08-20T01:42:17.827Z,45.13
2017-08-20T01:44:46.147Z,45.53
2017-08-20T01:47:15.335Z,47.50
2017-08-20T01:49:45.400Z,45.17
2017-08-20T01:52:13.703Z,45.90
2017-08-20T01:54:42.022Z,46.30
2017-08-20T01:57:10.307Z,48.03
2017-08-20T01:59:38.593Z,47.23
2017-08-20T02:02:06.915Z,44.60
2017-08-20T02:04:35.981Z,45.53
2017-08-20T02:07:04.303Z,46.97
2017-08-20T02:09:32.621Z,45.40
2017-08-20T02:12:00.958Z,44.40
2017-08-20T02:14:29.405Z,46.33
2017-08-20T02:16:57.737Z,46.50
2017-08-20T02:19:26.991Z,44.17
2017-08-20T02:21:56.067Z,45.20
2017-08-20T02:24:24.370Z,47.13
2017-08-20T02:26:52.686Z,45.73
2017-08-20T02:29:21.012Z,48.20
2017-08-20T02:31:49.304Z,47.97
2017-08-20T02:34:17.623Z,47.77
2017-08-20T02:36:45.916Z,51.23
2017-08-20T02:39:15.178Z,45.27
2017-08-20T02:41:43.462Z,45.57
2017-08-20T02:44:11.746Z,45.77
2017-08-20T02:46:40.062Z,46.03
2017-08-20T02:49:08.391Z,46.07
2017-08-20T02:51:37.455Z,46.90
2017-08-20T02:54:05.771Z,46.97
2017-08-20T02:56:34.063Z,46.17
2017-08-20T02:59:02.383Z,47.03
2017-08-20T03:01:31.445Z,51.93
2017-08-20T03:03:59.754Z,46.27
2017-08-20T03:06:28.057Z,48.23
2017-08-20T03:08:56.374Z,47.47
2017-08-20T03:11:24.683Z,47.70
2017-08-20T03:13:53.010Z,43.97
2017-08-20T03:16:21.303Z,45.40
2017-08-20T03:18:49.619Z,45.10
2017-08-20T03:21:17.914Z,47.23
2017-08-20T03:23:46.208Z,47.47
2017-08-20T03:26:14.531Z,46.77
2017-08-20T03:28:42.815Z,43.77
2017-08-20T03:31:11.139Z,46.40
2017-08-20T03:33:39.454Z,47.17
2017-08-20T03:36:07.775Z,47.20
2017-08-20T03:38:36.071Z,46.93
2017-08-20T03:41:04.388Z,47.37
2017-08-20T03:43:32.675Z,45.80
2017-08-20T03:46:01.087Z,48.70
2017-08-20T03:48:30.134Z,46.20
2017-08-20T03:50:58.457Z,46.93
2017-08-20T03:53:26.788Z,46.47
2017-08-20T03:55:55.895Z,47.30
2017-08-20T03:58:24.942Z,49.47
2017-08-20T04:00:53.234Z,45.37
2017-08-20T04:03:21.584Z,47.27
2017-08-20T04:05:50.659Z,47.97
2017-08-20T04:08:18.956Z,46.00
2017-08-20T04:10:47.284Z,47.23
2017-08-20T04:13:15.594Z,53.10
2017-08-20T04:15:43.924Z,46.63
2017-08-20T04:18:12.302Z,49.77
2017-08-20T04:20:40.614Z,46.60
2017-08-20T04:23:09.662Z,46.10
2017-08-20T04:25:37.989Z,46.20
2017-08-20T04:28:06.306Z,48.60
2017-08-20T04:30:35.412Z,48.03
2017-08-20T04:33:04.496Z,46.90
2017-08-20T04:35:32.818Z,47.00
2017-08-20T04:38:01.867Z,48.67
2017-08-20T04:40:30.150Z,47.07
2017-08-20T04:42:58.470Z,49.00
2017-08-20T04:45:26.790Z,47.83
2017-08-20T04:47:55.852Z,45.90
2017-08-20T04:50:24.171Z,48.40
2017-08-20T04:52:52.455Z,46.80
2017-08-20T04:55:20.770Z,45.77
2017-08-20T04:57:49.867Z,51.13
2017-08-20T05:00:18.153Z,48.03
2017-08-20T05:02:46.466Z,51.67
2017-08-20T05:05:14.746Z,51.77
2017-08-20T05:07:43.068Z,52.97
2017-08-20T05:10:11.364Z,49.83
2017-08-20T05:12:39.687Z,47.60
2017-08-20T05:15:07.975Z,52.40
2017-08-20T05:17:36.303Z,50.03
2017-08-20T05:20:04.595Z,47.80
2017-08-20T05:22:32.885Z,45.63
2017-08-20T05:25:01.204Z,49.07
2017-08-20T05:27:29.483Z,47.13
2017-08-20T05:29:57.763Z,46.30
2017-08-20T05:32:26.108Z,51.23
2017-08-20T05:34:54.419Z,55.20
2017-08-20T05:37:23.596Z,48.30
2017-08-20T05:39:51.896Z,46.77
2017-08-20T05:42:20.214Z,47.33
2017-08-20T05:44:48.494Z,48.63
2017-08-20T05:47:17.575Z,46.20
2017-08-20T05:49:45.887Z,46.60
2017-08-20T05:52:14.934Z,49.07
2017-08-20T05:54:43.355Z,46.83
2017-08-20T05:57:11.638Z,46.30
2017-08-20T05:59:39.928Z,46.87
2017-08-20T06:02:08.243Z,48.80
2017-08-20T06:04:36.528Z,45.90
2017-08-20T06:07:04.851Z,51.67
2017-08-20T06:09:33.168Z,48.37
2017-08-20T06:12:01.455Z,47.20
2017-08-20T06:14:29.766Z,45.90
2017-08-20T06:16:58.082Z,48.40
2017-08-20T06:19:27.167Z,49.07
2017-08-20T06:21:55.446Z,48.20
2017-08-20T06:24:23.774Z,47.10
2017-08-20T06:26:52.054Z,48.37
2017-08-20T06:29:20.364Z,47.60
2017-08-20T06:31:49.424Z,47.70
2017-08-20T06:34:17.726Z,49.30
2017-08-20T06:36:46.063Z,46.57
2017-08-20T06:39:14.346Z,46.70
2017-08-20T06:41:42.636Z,47.80
2017-08-20T06:44:10.950Z,47.27
2017-08-20T06:46:39.234Z,48.60
2017-08-20T06:49:07.554Z,47.30
2017-08-20T06:51:35.848Z,97.13
2017-08-20T06:54:04.179Z,1999.90
2017-08-20T06:56:32.535Z,1999.90
2017-08-20T06:59:00.872Z,1999.90
2017-08-20T07:01:29.174Z,1999.90
2017-08-20T07:03:57.507Z,1999.90
2017-08-20T07:06:26.624Z,1999.90
2017-08-20T07:08:55.687Z,81.13
2017-08-20T07:11:23.979Z,800.37
2017-08-20T07:13:52.311Z,1999.90
2017-08-20T07:16:21.376Z,213.23
2017-08-20T07:18:49.707Z,1999.90
2017-08-20T07:21:18.774Z,1999.90
2017-08-20T07:23:47.112Z,102.53
2017-08-20T07:26:16.171Z,79.93
2017-08-20T07:28:44.491Z,75.03
2017-08-20T07:31:12.806Z,60.90
2017-08-20T07:33:41.166Z,61.23
2017-08-20T07:38:42.859Z,63.70
2017-08-20T07:41:11.142Z,60.93
2017-08-20T07:43:39.459Z,61.07
2017-08-20T07:46:08.506Z,63.27
2017-08-20T07:48:36.849Z,64.93
2017-08-20T07:51:05.244Z,63.27
2017-08-20T07:53:33.624Z,63.00
2017-08-20T07:56:01.955Z,64.70
2017-08-20T07:58:30.307Z,69.67
2017-08-20T08:00:58.623Z,63.90
2017-08-20T08:03:27.680Z,64.87
2017-08-20T08:05:56.003Z,67.50
2017-08-20T08:08:24.291Z,66.60
2017-08-20T08:10:53.378Z,70.60
2017-08-20T08:13:21.698Z,67.77
2017-08-20T08:15:50.787Z,71.13
2017-08-20T08:18:19.098Z,67.97
2017-08-20T08:20:48.184Z,68.00
2017-08-20T08:23:16.508Z,69.10
2017-08-20T08:25:44.818Z,61.87
2017-08-20T08:28:13.110Z,64.00
2017-08-20T08:30:41.459Z,68.37
2017-08-20T08:33:10.515Z,63.33
2017-08-20T08:35:38.796Z,66.30
2017-08-20T08:38:07.319Z,66.67
2017-08-20T08:40:35.775Z,68.33
2017-08-20T08:43:04.123Z,63.10
2017-08-20T08:45:32.418Z,64.13
2017-08-20T08:48:00.715Z,65.63
2017-08-20T08:50:29.802Z,84.87
2017-08-20T08:52:58.094Z,66.00
2017-08-20T08:55:26.428Z,66.70
2017-08-20T08:57:54.715Z,63.07
2017-08-20T09:00:23.987Z,59.70
2017-08-20T09:02:52.313Z,64.00
2017-08-20T09:05:20.652Z,62.30
2017-08-20T09:07:48.986Z,125.40
2017-08-20T09:10:17.356Z,175.23
2017-08-20T09:12:46.476Z,1999.90
2017-08-20T09:15:14.823Z,1999.90
2017-08-20T09:17:43.153Z,1999.90
2017-08-20T09:20:12.264Z,1999.90
2017-08-20T09:22:40.608Z,1999.90
2017-08-20T09:25:08.976Z,1999.90
2017-08-20T09:27:37.325Z,1999.90
2017-08-20T09:30:06.403Z,1999.90
2017-08-20T09:32:34.820Z,1999.90
2017-08-20T09:35:03.935Z,1999.90
2017-08-20T09:37:33.020Z,1999.90
2017-08-20T09:40:01.353Z,1999.90
2017-08-20T09:42:29.691Z,1999.90
2017-08-20T09:44:57.999Z,1999.90
2017-08-20T09:47:27.080Z,1999.90
2017-08-20T09:49:55.891Z,1999.90
2017-08-20T09:52:24.207Z,1999.90
2017-08-20T09:54:53.316Z,1999.90
2017-08-20T09:57:22.421Z,1999.90
2017-08-20T09:59:51.523Z,1999.90
2017-08-20T10:02:20.670Z,1999.90
2017-08-20T10:04:49.018Z,1999.90
2017-08-20T10:07:17.368Z,1999.90
2017-08-20T10:09:45.717Z,1999.90
2017-08-20T10:12:14.052Z,1999.90
2017-08-20T10:14:42.376Z,1999.90
2017-08-20T10:17:10.715Z,1999.90
2017-08-20T10:19:39.029Z,1999.90
2017-08-20T10:22:07.388Z,1999.90
2017-08-20T10:24:35.699Z,1999.90
2017-08-20T10:27:04.041Z,1999.90
2017-08-20T10:29:33.224Z,1999.90
2017-08-20T10:32:01.530Z,1999.90
2017-08-20T10:34:29.924Z,1999.90
2017-08-20T10:36:59.127Z,1999.90
2017-08-20T10:39:27.479Z,370.27
2017-08-20T10:41:55.821Z,164.63
2017-08-20T10:44:24.878Z,126.87
2017-08-20T10:46:53.317Z,68.97
2017-08-20T10:49:21.614Z,1999.90
2017-08-20T10:51:50.699Z,1999.90
2017-08-20T10:54:19.044Z,1999.90
2017-08-20T10:56:47.359Z,1999.90
2017-08-20T10:59:15.703Z,1999.90
2017-08-20T11:01:44.054Z,1999.90
2017-08-20T11:04:12.376Z,155.40
2017-08-20T11:06:41.484Z,1999.90
2017-08-20T11:09:10.565Z,261.73
2017-08-20T11:11:38.930Z,100.50
2017-08-20T11:14:07.219Z,25.70
2017-08-20T11:16:35.538Z,12.47
2017-08-20T11:19:03.948Z,13.33
2017-08-20T11:21:33.002Z,95.47
2017-08-20T11:24:01.569Z,106.23
2017-08-20T11:26:29.941Z,739.97
2017-08-20T11:28:59.008Z,74.93
2017-08-20T11:31:27.339Z,1375.50
2017-08-20T11:33:56.444Z,1999.90
2017-08-20T11:36:25.643Z,3.37
2017-08-20T11:38:53.968Z,54.60
2017-08-20T11:41:22.326Z,1999.90
2017-08-20T11:43:51.455Z,1999.90
2017-08-20T11:46:20.529Z,167.90
2017-08-20T11:48:48.844Z,184.03
2017-08-20T11:51:17.927Z,1.90
2017-08-20T11:53:46.247Z,3.17
2017-08-20T11:56:15.424Z,3.00
2017-08-20T11:58:43.706Z,259.43
2017-08-20T12:01:12.023Z,585.13
2017-08-20T12:03:41.107Z,1.60
2017-08-20T12:06:09.397Z,77.73
2017-08-20T12:08:37.711Z,1.50
2017-08-20T12:11:06.025Z,4.83
2017-08-20T12:13:34.321Z,2.90
2017-08-20T12:16:02.648Z,1.43
2017-08-20T12:18:30.974Z,8.53
2017-08-20T12:20:59.260Z,3.97
2017-08-20T12:23:27.644Z,2.60
2017-08-20T12:25:55.933Z,9.70
2017-08-20T12:28:24.320Z,2.50
2017-08-20T12:30:52.638Z,1.47
2017-08-20T12:33:21.728Z,1.47
2017-08-20T12:35:50.132Z,1.30
2017-08-20T12:38:19.220Z,2.97
2017-08-20T12:40:47.542Z,5.60
2017-08-20T12:43:15.848Z,2.70
2017-08-20T12:45:44.152Z,1.57
2017-08-20T12:48:12.466Z,5.00
2017-08-20T12:50:40.787Z,97.10
2017-08-20T12:53:09.878Z,381.80
2017-08-20T12:55:38.979Z,8.73
2017-08-20T12:58:07.292Z,2.77
2017-08-20T13:00:36.476Z,3.83
2017-08-20T13:03:05.245Z,2.33
2017-08-20T13:05:33.672Z,1.00
2017-08-20T13:08:02.070Z,146.23
2017-08-20T13:10:30.564Z,27.37
2017-08-20T13:12:58.962Z,31.03
2017-08-20T13:15:27.345Z,1.77
2017-08-20T13:17:55.720Z,66.70
2017-08-20T13:20:24.027Z,94.23
2017-08-20T13:22:53.152Z,4.40
2017-08-20T13:25:22.355Z,3.60
2017-08-20T13:27:50.734Z,1.03
2017-08-20T13:30:19.040Z,0.97
2017-08-20T13:32:48.086Z,1.33
2017-08-20T13:35:16.380Z,1.67
2017-08-20T13:37:45.581Z,1.80
2017-08-20T13:40:13.926Z,2.30
2017-08-20T13:42:42.293Z,3.20
2017-08-20T13:45:10.562Z,1.80
2017-08-20T13:47:38.851Z,2.50
2017-08-20T13:50:07.193Z,2.67
2017-08-20T13:52:36.284Z,1.20
2017-08-20T13:55:04.558Z,5.37
2017-08-20T13:57:32.875Z,1.27
2017-08-20T14:00:01.969Z,1.47
2017-08-20T14:02:30.294Z,1.57
2017-08-20T14:04:58.603Z,1.13
2017-08-20T14:07:26.935Z,160.60
2017-08-20T14:09:55.326Z,1.20
2017-08-20T14:12:23.639Z,2.90
2017-08-20T14:14:52.745Z,15.87
2017-08-20T14:17:21.824Z,1.97
2017-08-20T14:19:50.211Z,1.07
2017-08-20T14:22:18.510Z,1410.57
2017-08-20T14:24:46.836Z,3.27
2017-08-20T14:27:15.907Z,90.33
2017-08-20T14:29:44.304Z,55.67
2017-08-20T14:32:12.601Z,32.97
2017-08-20T14:34:40.896Z,10.25
2017-08-20T14:37:09.982Z,3.77
2017-08-20T14:39:38.277Z,6.83
2017-08-20T14:42:06.660Z,1.80
2017-08-20T14:44:34.940Z,3.63
2017-08-20T14:47:03.273Z,2.30
2017-08-20T14:49:32.347Z,1.57
2017-08-20T14:52:00.739Z,2.93
2017-08-20T14:54:29.075Z,4.03
2017-08-20T14:56:57.351Z,1.50
2017-08-20T14:59:26.541Z,2.30
2017-08-20T15:01:54.846Z,1.10
2017-08-20T15:04:24.227Z,0.90
2017-08-20T15:06:52.494Z,1.30
2017-08-20T15:09:20.811Z,1.87
2017-08-20T15:11:49.106Z,0.90
2017-08-20T15:14:17.409Z,3.17
2017-08-20T15:16:45.724Z,1.87
2017-08-20T15:19:14.076Z,0.63
2017-08-20T15:21:42.364Z,1.00
2017-08-20T15:24:10.659Z,2.67
2017-08-20T15:26:38.971Z,3.23
2017-08-20T15:29:08.032Z,1.30
2017-08-20T15:31:36.338Z,2.00
2017-08-20T15:34:04.628Z,2.73
2017-08-20T15:36:33.024Z,1.77
2017-08-20T15:39:01.407Z,115.77
2017-08-20T15:41:29.700Z,1.10
2017-08-20T15:43:58.006Z,1.00
2017-08-20T15:46:27.197Z,1.40
2017-08-20T15:48:55.510Z,0.70
2017-08-20T15:51:24.584Z,3.23
2017-08-20T15:53:52.870Z,1.80
2017-08-20T15:56:22.207Z,1.20
2017-08-20T15:58:50.503Z,1.17
2017-08-20T16:01:18.889Z,0.97
2017-08-20T16:03:47.192Z,1.67
2017-08-20T16:06:16.277Z,1.43
2017-08-20T16:08:44.789Z,0.80
2017-08-20T16:11:13.886Z,0.83
2017-08-20T16:13:42.211Z,428.83
2017-08-20T16:16:10.512Z,1.40
2017-08-20T16:18:38.824Z,2.27
2017-08-20T16:21:07.109Z,0.70
2017-08-20T16:23:35.472Z,1.27
2017-08-20T16:26:03.820Z,3.00
2017-08-20T16:28:32.108Z,4.13
2017-08-20T16:31:00.424Z,3.40
2017-08-20T16:33:29.620Z,3.13
2017-08-20T16:35:58.718Z,0.70
2017-08-20T16:38:27.124Z,1.67
2017-08-20T16:40:56.181Z,5.20
2017-08-20T16:43:24.454Z,1.60
2017-08-20T16:45:52.785Z,1.27
2017-08-20T16:48:21.067Z,1.93
2017-08-20T16:50:49.408Z,1.70
2017-08-20T16:53:17.709Z,1.23
2017-08-20T16:55:46.002Z,1.00
2017-08-20T16:58:14.321Z,2.50
2017-08-20T17:00:42.605Z,3.17
2017-08-20T17:03:10.952Z,1.00
2017-08-20T17:05:40.038Z,3.13
2017-08-20T17:08:08.352Z,2.50
2017-08-20T17:10:36.856Z,2.93
2017-08-20T17:13:05.520Z,3.83
2017-08-20T17:15:33.890Z,1.40
2017-08-20T17:18:02.176Z,2.17
2017-08-20T17:20:30.464Z,1.63
2017-08-20T17:22:58.804Z,1.47
2017-08-20T17:25:27.088Z,1.73
2017-08-20T17:27:55.376Z,2.23
2017-08-20T17:30:23.693Z,1.33
2017-08-20T17:32:52.014Z,6.27
2017-08-20T17:35:20.295Z,2.43
2017-08-20T17:37:48.625Z,2.03
2017-08-20T17:40:17.721Z,1.97
2017-08-20T17:42:45.998Z,2.30
2017-08-20T17:45:14.379Z,3.70
2017-08-20T17:47:42.701Z,3.10
2017-08-20T17:50:11.752Z,4.27
2017-08-20T17:52:40.076Z,2.03
2017-08-20T17:55:08.356Z,2.40
2017-08-20T17:57:36.651Z,3.37
2017-08-20T18:00:05.044Z,9.10
2017-08-20T18:02:33.332Z,3.17
2017-08-20T18:05:01.653Z,3.83
2017-08-20T18:07:30.708Z,3.30
2017-08-20T18:09:59.109Z,4.00
2017-08-20T18:12:27.430Z,3.67
2017-08-20T18:14:56.511Z,3.20
2017-08-20T18:17:24.803Z,2.50
2017-08-20T18:19:53.131Z,1.63
2017-08-20T18:22:22.305Z,2.97
2017-08-20T18:24:50.587Z,3.13
2017-08-20T18:27:18.905Z,3.20
2017-08-20T18:29:47.956Z,5.00
2017-08-20T18:32:16.272Z,3.83
2017-08-20T18:34:44.562Z,4.60
2017-08-20T18:37:12.851Z,4.60
2017-08-20T18:39:41.544Z,4.93
2017-08-20T18:42:09.820Z,3.67
2017-08-20T18:44:38.136Z,5.77
2017-08-20T18:47:06.466Z,4.67
2017-08-20T18:49:34.742Z,5.00
2017-08-20T18:52:03.808Z,4.63
2017-08-20T18:54:32.310Z,3.53
2017-08-20T18:57:00.748Z,3.90
2017-08-20T18:59:29.099Z,4.57
2017-08-20T19:01:57.515Z,6.67
2017-08-20T19:04:26.568Z,4.20
2017-08-20T19:06:54.977Z,3.93
2017-08-20T19:09:23.469Z,5.90
2017-08-20T19:11:51.760Z,7.17
2017-08-20T19:14:20.173Z,5.57
2017-08-20T19:16:48.827Z,5.40
2017-08-20T19:19:17.116Z,6.63
2017-08-20T19:21:46.357Z,6.33
2017-08-20T19:24:14.731Z,8.67
2017-08-20T19:26:43.069Z,6.07
2017-08-20T19:29:12.192Z,7.23
2017-08-20T19:31:40.618Z,4.70
2017-08-20T19:34:09.048Z,7.77
2017-08-20T19:36:37.332Z,7.20
2017-08-20T19:39:05.707Z,4.90
2017-08-20T19:41:33.996Z,6.60
2017-08-20T19:44:02.302Z,8.00
2017-08-20T19:46:30.688Z,6.80
2017-08-20T19:48:58.972Z,7.70
2017-08-20T19:51:27.312Z,10.40
2017-08-20T19:53:55.660Z,7.83
2017-08-20T19:56:24.011Z,6.37
2017-08-20T19:58:52.321Z,6.77
2017-08-20T20:01:20.613Z,6.90
2017-08-20T20:03:48.930Z,8.27
2017-08-20T20:06:18.029Z,7.50
2017-08-20T20:08:46.350Z,7.60
2017-08-20T20:11:14.641Z,8.67
2017-08-20T20:13:42.992Z,9.73
2017-08-20T20:16:11.321Z,8.70
2017-08-20T20:18:39.657Z,11.10
2017-08-20T20:21:07.960Z,11.60
2017-08-20T20:23:36.296Z,15.93
2017-08-20T20:26:04.590Z,24.27
2017-08-20T20:28:33.018Z,27.50
2017-08-20T20:31:01.344Z,18.00
2017-08-20T20:33:30.405Z,12.70
2017-08-20T20:35:58.682Z,8.23
2017-08-20T20:38:26.992Z,9.30
2017-08-20T20:40:55.300Z,10.80
2017-08-20T20:43:23.615Z,7.90
2017-08-20T20:45:52.678Z,7.30
2017-08-20T20:48:20.992Z,6.93
2017-08-20T20:50:49.380Z,11.40
2017-08-20T20:53:17.667Z,11.70
2017-08-20T20:55:46.002Z,10.60
2017-08-20T20:58:15.174Z,10.40
2017-08-20T21:00:44.401Z,12.13
2017-08-20T21:03:13.489Z,7.37
2017-08-20T21:05:41.807Z,10.53
2017-08-20T21:08:10.166Z,6.93
2017-08-20T21:10:38.439Z,6.60
2017-08-20T21:13:06.759Z,5.43
2017-08-20T21:15:35.810Z,5.20
2017-08-20T21:18:04.132Z,7.00
2017-08-20T21:20:32.406Z,7.70
2017-08-20T21:23:00.724Z,7.30
2017-08-20T21:25:29.002Z,5.60
2017-08-20T21:27:57.297Z,8.43
2017-08-20T21:30:25.688Z,4.50
2017-08-20T21:32:54.071Z,7.43
2017-08-20T21:35:22.355Z,8.73
2017-08-20T21:37:50.650Z,6.93
2017-08-20T21:40:19.049Z,10.63
2017-08-20T21:42:47.366Z,4.47
2017-08-20T21:45:15.719Z,4.17
2017-08-20T21:47:44.007Z,4.23
2017-08-20T21:50:12.394Z,6.17
2017-08-20T21:52:40.701Z,6.33
2017-08-20T21:55:09.083Z,6.00
2017-08-20T21:57:37.416Z,15.10
2017-08-20T22:00:05.806Z,19.70
2017-08-20T22:02:34.859Z,21.57
2017-08-20T22:05:03.170Z,9.73
2017-08-20T22:07:31.509Z,9.60
2017-08-20T22:09:59.796Z,4.17
2017-08-20T22:12:29.165Z,5.43
2017-08-20T22:14:57.494Z,5.23
2017-08-20T22:17:25.841Z,6.73
2017-08-20T22:19:54.128Z,6.07
2017-08-20T22:22:22.460Z,5.13
2017-08-20T22:24:50.743Z,8.13
2017-08-20T22:27:19.117Z,11.90
2017-08-20T22:29:48.209Z,15.00
2017-08-20T22:32:16.496Z,7.57
2017-08-20T22:34:44.825Z,4.80
2017-08-20T22:37:13.102Z,4.73
2017-08-20T22:39:41.410Z,4.57
2017-08-20T22:42:09.734Z,6.20
2017-08-20T22:44:38.015Z,4.90
2017-08-20T22:47:06.336Z,6.57
2017-08-20T22:49:34.632Z,8.97
2017-08-20T22:52:03.692Z,7.87
2017-08-20T22:54:31.998Z,5.63
2017-08-20T22:57:00.297Z,5.27
2017-08-20T22:59:28.603Z,6.27
2017-08-20T23:01:57.703Z,11.00
2017-08-20T23:04:25.997Z,9.20
2017-08-20T23:06:54.313Z,5.53
2017-08-20T23:09:23.383Z,4.17
2017-08-20T23:11:51.672Z,3.37
2017-08-20T23:14:19.996Z,3.73
2017-08-20T23:16:49.099Z,4.60
2017-08-20T23:19:18.179Z,3.50
2017-08-20T23:21:46.500Z,3.60
2017-08-20T23:24:15.873Z,3.27
2017-08-20T23:26:44.145Z,7.10
2017-08-20T23:29:12.432Z,5.63
2017-08-20T23:31:40.860Z,4.30
2017-08-20T23:34:09.134Z,7.87
2017-08-20T23:36:37.438Z,4.33
2017-08-20T23:39:05.757Z,3.07
2017-08-20T23:41:34.105Z,3.10
2017-08-20T23:44:02.378Z,2.90
2017-08-20T23:46:30.704Z,3.33
2017-08-20T23:48:59.038Z,4.57
2017-08-20T23:51:27.310Z,4.27
2017-08-20T23:53:55.626Z,2.97
2017-08-20T23:56:23.965Z,2.70
2017-08-20T23:58:52.271Z,2.50
